createdAt,value
2018-07-22T09:33:43.121Z,23.90
2018-07-22T09:36:12.682Z,24.00
2018-07-22T09:38:41.917Z,24.10
2018-07-22T09:41:11.284Z,24.20
2018-07-22T09:43:40.598Z,24.30
2018-07-22T09:46:10.076Z,24.50
2018-07-22T09:48:39.432Z,24.60
2018-07-22T09:51:08.855Z,24.80
2018-07-22T09:56:07.109Z,25.40
2018-07-22T09:58:36.474Z,25.50
2018-07-22T10:01:05.976Z,25.70
2018-07-22T10:03:35.319Z,25.90
2018-07-22T10:06:04.717Z,26.00
2018-07-22T10:08:34.120Z,26.10
2018-07-22T10:11:06.470Z,26.20
2018-07-22T10:13:35.784Z,26.20
2018-07-22T10:16:05.318Z,26.20
2018-07-22T10:18:34.647Z,26.20
2018-07-22T10:23:32.898Z,26.30
2018-07-22T10:26:02.285Z,26.30
2018-07-22T10:28:31.654Z,26.40
2018-07-22T10:31:00.993Z,26.30
2018-07-22T10:33:30.334Z,26.40
2018-07-22T10:35:59.742Z,26.40
2018-07-22T10:38:29.047Z,26.30
2018-07-22T10:43:27.283Z,26.20
2018-07-22T10:45:56.686Z,26.30
2018-07-22T10:48:25.996Z,26.20
2018-07-22T10:50:55.345Z,26.20
2018-07-22T10:55:53.673Z,25.90
2018-07-22T10:58:23.060Z,25.90
2018-07-22T11:00:52.420Z,25.90
2018-07-22T11:03:21.891Z,26.10
2018-07-22T11:05:51.206Z,26.10
2018-07-22T11:08:20.627Z,26.20
2018-07-22T11:10:49.957Z,26.30
2018-07-22T11:15:48.195Z,26.20
2018-07-22T11:18:17.580Z,26.30
2018-07-22T11:20:46.925Z,26.50
2018-07-22T11:23:16.269Z,26.70
2018-07-22T11:28:14.447Z,27.10
2018-07-22T11:30:43.789Z,27.20
2018-07-22T11:33:13.157Z,27.30
2018-07-22T11:35:42.461Z,27.40
2018-07-22T11:38:11.888Z,27.40
2018-07-22T11:40:41.199Z,27.20
2018-07-22T11:43:10.523Z,27.10
2018-07-22T11:45:39.839Z,27.10
2018-07-22T11:48:09.147Z,27.10
2018-07-22T11:53:07.408Z,27.20
2018-07-22T11:55:36.708Z,27.20
2018-07-22T11:58:06.205Z,27.10
2018-07-22T12:00:35.596Z,27.10
2018-07-22T12:03:04.939Z,27.30
2018-07-22T12:05:34.267Z,27.50
2018-07-22T12:08:03.605Z,27.60
2018-07-22T12:10:32.908Z,27.70
2018-07-22T12:13:02.248Z,27.70
2018-07-22T12:15:31.568Z,27.70
2018-07-22T12:18:00.919Z,27.80
2018-07-22T12:20:30.221Z,27.80
2018-07-22T12:22:59.584Z,27.70
2018-07-22T12:25:28.899Z,27.80
2018-07-22T12:27:58.282Z,27.80
2018-07-22T12:30:27.570Z,27.90
2018-07-22T12:35:25.808Z,27.90
2018-07-22T12:37:55.378Z,28.00
2018-07-22T12:40:24.725Z,28.10
2018-07-22T12:42:54.125Z,28.20
2018-07-22T12:45:23.484Z,28.30
2018-07-22T12:47:52.829Z,28.30
2018-07-22T12:50:22.509Z,28.30
2018-07-22T12:52:51.902Z,28.30
2018-07-22T12:55:21.276Z,28.40
2018-07-22T12:57:50.912Z,28.40
2018-07-22T13:00:20.250Z,28.40
2018-07-22T13:02:49.596Z,28.40
2018-07-22T13:07:47.816Z,28.70
2018-07-22T13:10:17.163Z,28.90
2018-07-22T13:12:46.480Z,28.90
2018-07-22T13:15:16.108Z,28.80
2018-07-22T13:17:45.712Z,28.80
2018-07-22T13:22:44.160Z,28.70
2018-07-22T13:25:13.516Z,28.70
2018-07-22T13:27:42.853Z,28.80
2018-07-22T13:30:12.218Z,28.80
2018-07-22T13:32:41.568Z,28.90
2018-07-22T13:35:13.081Z,29.00
2018-07-22T13:37:42.760Z,29.10
2018-07-22T13:42:41.204Z,29.20
2018-07-22T13:45:10.685Z,29.20
2018-07-22T13:47:39.972Z,29.30
2018-07-22T13:52:38.912Z,29.30
2018-07-22T13:55:08.264Z,29.40
2018-07-22T13:57:37.575Z,29.60
2018-07-22T14:00:07.243Z,29.80
2018-07-22T14:02:36.574Z,30.00
2018-07-22T14:05:05.997Z,29.90
2018-07-22T14:10:04.605Z,29.60
2018-07-22T14:15:03.008Z,29.50
2018-07-22T14:20:01.250Z,29.40
2018-07-22T14:22:30.588Z,29.40
2018-07-22T14:27:28.881Z,29.90
2018-07-22T14:32:27.161Z,30.40
2018-07-22T14:34:56.552Z,30.50
2018-07-22T14:37:25.898Z,30.50
2018-07-22T14:39:55.321Z,30.60
2018-07-22T14:42:24.688Z,30.80
2018-07-22T14:47:22.959Z,30.60
2018-07-22T14:49:52.808Z,30.60
2018-07-22T14:52:22.256Z,30.60
2018-07-22T14:54:51.591Z,30.60
2018-07-22T14:57:20.923Z,30.50
2018-07-22T14:59:50.320Z,30.20
2018-07-22T15:02:19.657Z,30.10
2018-07-22T15:04:48.998Z,30.10
2018-07-22T15:07:18.349Z,30.00
2018-07-22T15:09:47.668Z,30.10
2018-07-22T15:12:16.996Z,30.20
2018-07-22T15:14:46.348Z,30.30
2018-07-22T15:17:15.709Z,30.50
2018-07-22T15:22:13.900Z,30.70
2018-07-22T15:24:43.248Z,30.70
2018-07-22T15:27:12.646Z,30.50
2018-07-22T15:29:41.977Z,30.70
2018-07-22T15:32:11.360Z,30.80
2018-07-22T15:34:41.015Z,30.90
2018-07-22T15:37:10.473Z,31.10
2018-07-22T15:39:39.790Z,31.00
2018-07-22T15:42:09.152Z,31.00
2018-07-22T15:44:38.741Z,30.90
2018-07-22T15:49:36.941Z,30.90
2018-07-22T15:52:06.283Z,30.70
2018-07-22T15:54:35.616Z,30.40
2018-07-22T15:57:05.064Z,30.30
2018-07-22T15:59:34.495Z,30.00
2018-07-22T16:02:03.917Z,29.80
2018-07-22T16:04:33.434Z,29.70
2018-07-22T16:09:32.093Z,29.50
2018-07-22T16:12:01.780Z,29.60
2018-07-22T16:14:31.120Z,29.70
2018-07-22T16:17:00.452Z,29.80
2018-07-22T16:21:58.641Z,30.20
2018-07-22T16:24:28.076Z,30.40
2018-07-22T16:26:57.455Z,30.50
2018-07-22T16:31:55.635Z,30.70
2018-07-22T16:34:24.934Z,30.80
2018-07-22T16:36:54.276Z,30.80
2018-07-22T16:39:23.623Z,30.90
2018-07-22T16:41:52.975Z,30.80
2018-07-22T16:44:22.318Z,30.80
2018-07-22T16:46:51.642Z,30.90
2018-07-22T16:49:20.988Z,30.90
2018-07-22T16:51:50.316Z,30.90
2018-07-22T16:54:19.648Z,30.90
2018-07-22T16:56:49.028Z,31.00
2018-07-22T16:59:25.024Z,31.20
2018-07-22T17:04:23.214Z,31.20
2018-07-22T17:06:52.572Z,31.00
2018-07-22T17:09:21.896Z,30.80
2018-07-22T17:11:51.211Z,30.60
2018-07-22T17:16:49.465Z,30.20
2018-07-22T17:19:18.817Z,29.80
2018-07-22T17:21:48.121Z,29.70
2018-07-22T17:24:17.539Z,29.70
2018-07-22T17:26:46.867Z,29.60
2018-07-22T17:29:16.184Z,29.60
2018-07-22T17:31:45.507Z,29.40
2018-07-22T17:36:43.739Z,29.20
2018-07-22T17:39:13.160Z,29.00
2018-07-22T17:41:42.489Z,28.80
2018-07-22T17:44:11.833Z,28.70
2018-07-22T17:46:41.132Z,28.50
2018-07-22T17:49:10.459Z,28.40
2018-07-22T17:51:39.770Z,28.20
2018-07-22T17:54:09.142Z,28.20
2018-07-22T17:56:38.505Z,27.90
2018-07-22T17:59:07.920Z,27.80
2018-07-22T18:01:37.306Z,27.80
2018-07-22T18:04:06.645Z,27.70
2018-07-22T18:06:36.028Z,27.60
2018-07-22T18:11:36.024Z,27.30
2018-07-22T18:14:05.457Z,27.20
2018-07-22T18:16:35.022Z,27.20
2018-07-22T18:19:04.432Z,27.10
2018-07-22T18:21:33.730Z,27.00
2018-07-22T18:24:03.105Z,26.90
2018-07-22T18:26:32.550Z,26.80
2018-07-22T18:29:01.873Z,26.60
2018-07-22T18:31:31.202Z,26.40
2018-07-22T18:34:00.559Z,26.40
2018-07-22T18:36:29.892Z,26.30
2018-07-22T18:38:59.316Z,26.20
2018-07-22T18:41:28.691Z,26.10
2018-07-22T18:48:55.767Z,25.90
2018-07-22T18:53:54.015Z,25.80
2018-07-22T18:56:23.344Z,25.70
2018-07-22T19:01:21.703Z,25.50
2018-07-22T19:03:51.107Z,25.40
2018-07-22T19:06:20.504Z,25.40
2018-07-22T19:08:49.832Z,25.30
2018-07-22T19:11:19.205Z,25.30
2018-07-22T19:13:48.577Z,25.30
2018-07-22T19:18:46.783Z,25.20
2018-07-22T19:21:16.195Z,25.20
2018-07-22T19:23:45.793Z,25.10
2018-07-22T19:26:15.155Z,25.10
2018-07-22T19:28:50.867Z,25.00
2018-07-22T19:31:20.195Z,25.00
2018-07-22T19:33:49.835Z,24.90
2018-07-22T19:38:48.154Z,24.80
2018-07-22T19:41:17.511Z,24.70
2018-07-22T19:43:46.948Z,24.70
2018-07-22T19:46:16.673Z,24.60
2018-07-22T19:48:46.328Z,24.50
2018-07-22T19:51:15.851Z,24.50
2018-07-22T19:53:45.373Z,24.40
2018-07-22T19:56:14.924Z,24.30
2018-07-22T19:58:44.376Z,24.10
2018-07-22T20:06:11.521Z,23.90
2018-07-22T20:08:40.863Z,23.80
2018-07-22T20:11:10.219Z,23.70
2018-07-22T20:13:39.544Z,23.70
2018-07-22T20:18:37.762Z,23.50
2018-07-22T20:21:07.205Z,23.40
2018-07-22T20:23:36.553Z,23.40
2018-07-22T20:28:34.785Z,23.20
2018-07-22T20:31:04.162Z,23.10
2018-07-22T20:36:02.440Z,23.00
2018-07-22T20:38:31.732Z,22.80
2018-07-22T20:41:01.077Z,22.70
2018-07-22T20:43:30.427Z,22.60
2018-07-22T20:45:59.787Z,22.50
2018-07-22T20:48:29.119Z,22.40
2018-07-22T20:50:58.533Z,22.40
2018-07-22T20:53:27.826Z,22.30
2018-07-22T20:55:57.204Z,22.30
2018-07-22T20:58:26.759Z,22.40
2018-07-22T21:00:56.180Z,22.40
2018-07-22T21:05:54.352Z,22.40
2018-07-22T21:08:23.740Z,22.20
2018-07-22T21:10:53.072Z,22.20
2018-07-22T21:13:27.437Z,22.30
2018-07-22T21:15:56.741Z,22.20
2018-07-22T21:18:26.080Z,22.20
2018-07-22T21:23:24.337Z,22.10
2018-07-22T21:25:53.687Z,22.00
2018-07-22T21:28:23.016Z,21.90
2018-07-22T21:30:52.331Z,21.80
2018-07-22T21:33:21.833Z,21.70
2018-07-22T21:35:51.315Z,21.60
2018-07-22T21:38:20.869Z,21.50
2018-07-22T21:40:50.396Z,21.40
2018-07-22T21:45:49.014Z,21.30
2018-07-22T21:48:18.673Z,21.20
2018-07-22T21:50:48.298Z,21.10
2018-07-22T21:53:17.893Z,21.10
2018-07-22T21:55:47.450Z,21.10
2018-07-22T21:58:17.217Z,21.10
2018-07-22T22:00:46.912Z,21.10
2018-07-22T22:03:16.507Z,21.00
2018-07-22T22:05:46.177Z,21.00
2018-07-22T22:08:15.889Z,20.90
2018-07-22T22:10:45.554Z,20.80
2018-07-22T22:13:15.256Z,20.80
2018-07-22T22:15:44.852Z,20.70
2018-07-22T22:18:14.444Z,20.60
2018-07-22T22:20:43.943Z,20.60
2018-07-22T22:23:13.280Z,20.60
2018-07-22T22:25:42.651Z,20.50
2018-07-22T22:28:12.000Z,20.50
2018-07-22T22:30:41.332Z,20.50
2018-07-22T22:33:10.717Z,20.50
2018-07-22T22:35:40.033Z,20.60
2018-07-22T22:38:09.367Z,20.60
2018-07-22T22:40:38.732Z,20.60
2018-07-22T22:43:08.125Z,20.60
2018-07-22T22:45:37.456Z,20.60
2018-07-22T22:48:06.783Z,20.50
2018-07-22T22:50:36.140Z,20.60
2018-07-22T22:53:05.511Z,20.50
2018-07-22T22:55:34.883Z,20.50
2018-07-22T22:58:15.454Z,20.40
2018-07-22T23:00:44.867Z,20.40
2018-07-22T23:03:14.254Z,20.40
2018-07-22T23:05:43.620Z,20.30
2018-07-22T23:08:12.963Z,20.30
2018-07-22T23:10:42.389Z,20.30
2018-07-22T23:13:11.700Z,20.30
2018-07-22T23:15:41.015Z,20.20
2018-07-22T23:18:10.313Z,20.20
2018-07-22T23:20:39.651Z,20.30
2018-07-22T23:23:08.975Z,20.20
2018-07-22T23:25:38.359Z,20.20
2018-07-22T23:28:07.677Z,20.20
2018-07-22T23:30:37.068Z,20.20
2018-07-22T23:33:06.442Z,20.20
2018-07-22T23:35:35.816Z,20.20
2018-07-22T23:38:05.411Z,20.20
2018-07-22T23:40:34.798Z,20.20
2018-07-22T23:43:04.136Z,20.10
2018-07-22T23:45:33.478Z,20.00
2018-07-22T23:48:02.783Z,19.80
2018-07-22T23:50:32.169Z,19.70
2018-07-22T23:53:01.660Z,19.70
2018-07-22T23:55:31.020Z,19.70
2018-07-22T23:58:00.361Z,19.70
